createdAt,value
2022-10-02T00:01:55.788Z,21.00
2022-10-02T00:05:09.389Z,21.00
2022-10-02T00:08:30.061Z,18.75
2022-10-02T00:11:44.034Z,19.50
2022-10-02T00:14:48.207Z,19.75
2022-10-02T00:17:53.784Z,20.50
2022-10-02T00:21:33.345Z,19.75
2022-10-02T00:24:57.360Z,21.50
2022-10-02T00:28:13.750Z,18.25
2022-10-02T00:31:53.625Z,18.50
2022-10-02T00:35:20.883Z,20.75
2022-10-02T00:38:39.347Z,23.50
2022-10-02T00:42:03.127Z,20.25
2022-10-02T00:45:24.034Z,21.00
2022-10-02T00:48:31.971Z,22.00
2022-10-02T00:51:42.143Z,19.25
2022-10-02T00:55:02.506Z,16.75
2022-10-02T00:58:28.066Z,23.75
2022-10-02T01:02:00.927Z,20.75
2022-10-02T01:05:05.799Z,22.25
2022-10-02T01:08:08.085Z,20.75
2022-10-02T01:11:10.370Z,19.00
2022-10-02T01:14:12.777Z,18.75
2022-10-02T01:17:27.736Z,21.00
2022-10-02T01:20:41.858Z,21.25
2022-10-02T01:24:17.934Z,24.25
2022-10-02T01:27:20.000Z,22.75
2022-10-02T01:30:22.699Z,26.25
2022-10-02T01:33:24.921Z,21.00
2022-10-02T01:36:27.247Z,25.00
2022-10-02T01:39:29.634Z,27.00
2022-10-02T01:42:32.432Z,24.25
2022-10-02T01:46:05.285Z,23.25
2022-10-02T01:49:44.701Z,24.00
2022-10-02T01:53:05.519Z,22.25
2022-10-02T01:56:24.077Z,28.00
2022-10-02T01:59:45.901Z,24.00
2022-10-02T02:03:18.957Z,21.00
2022-10-02T02:06:39.795Z,22.75
2022-10-02T02:10:28.522Z,20.75
2022-10-02T02:13:39.771Z,22.00
2022-10-02T02:16:44.976Z,22.00
2022-10-02T02:20:13.884Z,24.00
2022-10-02T02:23:19.815Z,23.50
2022-10-02T02:26:24.366Z,24.25
2022-10-02T02:29:29.772Z,23.50
2022-10-02T02:32:36.380Z,24.00
2022-10-02T02:35:47.877Z,24.75
2022-10-02T02:38:56.998Z,20.00
2022-10-02T02:42:03.261Z,22.50
2022-10-02T02:45:12.176Z,19.75
2022-10-02T02:48:22.280Z,24.00
2022-10-02T02:51:30.183Z,26.75
2022-10-02T02:54:46.038Z,20.25
2022-10-02T02:58:05.599Z,26.25
2022-10-02T03:01:08.150Z,25.50
2022-10-02T03:04:12.677Z,25.25
2022-10-02T03:07:17.440Z,26.25
2022-10-02T03:10:42.324Z,25.75
2022-10-02T03:13:54.667Z,24.25
2022-10-02T03:17:21.609Z,25.25
2022-10-02T03:20:26.654Z,28.00
2022-10-02T03:23:34.186Z,25.50
2022-10-02T03:26:52.751Z,23.00
2022-10-02T03:30:15.494Z,30.25
2022-10-02T03:33:17.997Z,27.25
2022-10-02T03:36:24.567Z,23.75
2022-10-02T03:39:26.981Z,25.25
2022-10-02T03:42:32.575Z,22.00
2022-10-02T03:45:51.685Z,30.00
2022-10-02T03:48:56.586Z,28.50
2022-10-02T03:51:58.891Z,28.75
2022-10-02T03:55:13.678Z,30.00
2022-10-02T03:58:18.388Z,23.00
2022-10-02T04:01:27.207Z,29.00
2022-10-02T04:04:34.723Z,30.75
2022-10-02T04:07:40.216Z,28.75
2022-10-02T04:10:52.269Z,28.50
2022-10-02T04:14:22.237Z,33.25
2022-10-02T04:17:33.207Z,27.75
2022-10-02T04:20:43.233Z,29.75
2022-10-02T04:24:24.114Z,30.00
2022-10-02T04:27:48.431Z,30.00
2022-10-02T04:30:53.195Z,31.00
2022-10-02T04:34:01.176Z,20.75
2022-10-02T04:37:06.645Z,26.00
2022-10-02T04:40:27.337Z,33.50
2022-10-02T04:43:41.579Z,29.50
2022-10-02T04:47:04.963Z,26.25
2022-10-02T04:50:25.912Z,29.75
2022-10-02T04:53:42.882Z,31.50
2022-10-02T04:57:03.546Z,29.75
2022-10-02T05:00:10.276Z,32.50
2022-10-02T05:03:41.417Z,31.50
2022-10-02T05:07:21.014Z,24.75
2022-10-02T05:10:36.302Z,34.25
2022-10-02T05:13:52.263Z,31.75
2022-10-02T05:17:31.639Z,29.50
2022-10-02T05:20:57.049Z,33.00
2022-10-02T05:24:36.682Z,31.50
2022-10-02T05:27:47.699Z,31.25
2022-10-02T05:31:20.949Z,26.50
2022-10-02T05:34:33.575Z,25.75
2022-10-02T05:37:50.134Z,28.25
2022-10-02T05:41:04.934Z,29.25
2022-10-02T05:44:37.462Z,24.00
2022-10-02T05:47:45.068Z,31.00
2022-10-02T05:50:52.567Z,22.25
2022-10-02T05:54:01.816Z,29.00
2022-10-02T05:57:13.329Z,22.25
2022-10-02T06:00:33.199Z,23.50
2022-10-02T06:03:49.105Z,19.25
2022-10-02T06:06:54.389Z,20.75
2022-10-02T06:10:08.157Z,24.75
2022-10-02T06:13:29.198Z,23.25
2022-10-02T06:16:46.265Z,24.00
2022-10-02T06:19:57.862Z,19.75
2022-10-02T06:23:06.272Z,30.25
2022-10-02T06:26:25.537Z,24.75
2022-10-02T06:29:42.629Z,25.00
2022-10-02T06:33:13.592Z,21.75
2022-10-02T06:36:27.711Z,27.25
2022-10-02T06:39:36.179Z,22.50
2022-10-02T06:42:44.242Z,20.50
2022-10-02T06:45:58.516Z,21.25
2022-10-02T06:49:09.731Z,22.00
2022-10-02T06:52:37.912Z,19.50
2022-10-02T06:56:11.801Z,20.75
2022-10-02T06:59:23.727Z,18.00
2022-10-02T07:02:49.322Z,19.50
2022-10-02T07:05:54.437Z,24.00
2022-10-02T07:09:08.786Z,22.25
2022-10-02T07:12:32.807Z,26.00
2022-10-02T07:15:56.542Z,25.25
2022-10-02T07:19:23.271Z,22.50
2022-10-02T07:23:02.748Z,18.25
2022-10-02T07:26:29.667Z,28.00
2022-10-02T07:29:51.083Z,26.00
2022-10-02T07:33:09.682Z,25.25
2022-10-02T07:36:44.315Z,26.00
2022-10-02T07:40:06.542Z,30.00
2022-10-02T07:43:27.247Z,29.75
2022-10-02T07:46:35.714Z,29.00
2022-10-02T07:49:58.188Z,29.00
2022-10-02T07:53:14.214Z,26.50
2022-10-02T07:56:20.790Z,24.00
2022-10-02T07:59:23.594Z,19.00
2022-10-02T08:02:52.370Z,20.75
2022-10-02T08:05:56.059Z,18.00
2022-10-02T08:09:10.571Z,17.75
2022-10-02T08:12:24.146Z,15.75
2022-10-02T08:15:29.856Z,15.75
2022-10-02T08:18:54.387Z,15.00
2022-10-02T08:22:01.863Z,16.00
2022-10-02T08:25:17.504Z,15.00
2022-10-02T08:29:15.426Z,14.25
2022-10-02T08:32:17.778Z,14.00
2022-10-02T08:35:21.154Z,13.75
2022-10-02T08:38:54.443Z,11.25
2022-10-02T08:42:21.794Z,13.25
2022-10-02T08:45:52.025Z,12.25
2022-10-02T08:49:23.792Z,15.00
2022-10-02T08:52:48.527Z,13.75
2022-10-02T08:56:09.792Z,13.25
2022-10-02T08:59:42.180Z,14.00
2022-10-02T09:03:09.035Z,12.75
2022-10-02T09:06:48.686Z,10.25
2022-10-02T09:10:28.345Z,11.75
2022-10-02T09:13:54.281Z,11.25
2022-10-02T09:17:15.632Z,10.25
2022-10-02T09:20:27.001Z,9.25
2022-10-02T09:23:47.596Z,11.00
2022-10-02T09:26:59.217Z,10.75
2022-10-02T09:30:31.577Z,10.00
2022-10-02T09:34:01.002Z,10.00
2022-10-02T09:37:40.351Z,9.75
2022-10-02T09:41:04.296Z,9.00
2022-10-02T09:44:29.138Z,8.75
2022-10-02T09:48:05.039Z,10.00
2022-10-02T09:51:33.418Z,8.00
2022-10-02T09:55:05.797Z,9.50
2022-10-02T09:58:45.228Z,5.00
2022-10-02T10:02:08.998Z,9.50
2022-10-02T10:05:33.002Z,8.00
2022-10-02T10:08:53.739Z,10.00
2022-10-02T10:12:14.392Z,7.50
2022-10-02T10:16:02.241Z,10.00
2022-10-02T10:19:39.074Z,6.25
2022-10-02T10:22:44.329Z,8.00
2022-10-02T10:26:04.923Z,7.25
2022-10-02T10:29:35.762Z,5.25
2022-10-02T10:33:02.083Z,4.00
2022-10-02T10:37:18.259Z,5.00
2022-10-02T10:40:36.081Z,5.00
2022-10-02T10:44:12.418Z,4.00
2022-10-02T10:47:21.135Z,3.75
2022-10-02T10:50:29.963Z,4.50
2022-10-02T10:54:02.061Z,4.75
2022-10-02T10:57:24.019Z,4.75
2022-10-02T11:00:31.052Z,5.25
2022-10-02T11:03:45.663Z,5.00
2022-10-02T11:07:13.903Z,7.25
2022-10-02T11:10:38.013Z,8.00
2022-10-02T11:13:45.894Z,7.25
2022-10-02T11:17:25.517Z,5.00
2022-10-02T11:20:53.982Z,7.25
2022-10-02T11:24:07.910Z,6.00
2022-10-02T11:27:18.919Z,8.00
2022-10-02T11:30:25.754Z,9.00
2022-10-02T11:34:08.837Z,5.75
2022-10-02T11:37:24.374Z,6.00
2022-10-02T11:41:03.668Z,8.75
2022-10-02T11:44:16.986Z,6.50
2022-10-02T11:48:11.117Z,8.00
2022-10-02T11:51:50.942Z,7.50
2022-10-02T11:54:58.740Z,7.00
2022-10-02T11:58:08.202Z,8.00
2022-10-02T12:01:35.585Z,6.00
2022-10-02T12:04:42.331Z,4.75
2022-10-02T12:08:24.190Z,4.75
2022-10-02T12:11:36.539Z,5.25
2022-10-02T12:15:00.593Z,7.50
2022-10-02T12:18:24.030Z,7.00
2022-10-02T12:22:03.212Z,7.75
2022-10-02T12:25:33.444Z,9.00
2022-10-02T12:28:56.112Z,7.75
2022-10-02T12:32:05.296Z,9.00
2022-10-02T12:35:31.334Z,5.00
2022-10-02T12:38:59.969Z,6.50
2022-10-02T12:42:11.708Z,7.25
2022-10-02T12:45:32.100Z,8.50
2022-10-02T12:48:35.315Z,5.25
2022-10-02T12:52:06.319Z,9.50
2022-10-02T12:55:29.921Z,5.75
2022-10-02T12:58:38.232Z,9.00
2022-10-02T13:02:10.798Z,8.75
2022-10-02T13:05:23.292Z,8.50
2022-10-02T13:08:56.286Z,9.50
2022-10-02T13:12:13.363Z,6.00
2022-10-02T13:15:23.696Z,8.75
2022-10-02T13:18:55.406Z,7.50
2022-10-02T13:22:07.617Z,5.25
2022-10-02T13:25:15.982Z,5.50
2022-10-02T13:28:39.563Z,6.00
2022-10-02T13:32:06.927Z,6.25
2022-10-02T13:35:40.663Z,8.25
2022-10-02T13:38:48.791Z,5.00
2022-10-02T13:42:20.526Z,5.00
2022-10-02T13:45:32.995Z,5.00
2022-10-02T13:49:03.761Z,8.00
2022-10-02T13:52:32.774Z,9.50
2022-10-02T13:55:50.373Z,10.75
2022-10-02T13:59:39.718Z,10.00
2022-10-02T14:03:05.578Z,9.00
2022-10-02T14:06:34.029Z,10.75
2022-10-02T14:09:58.086Z,10.75
2022-10-02T14:13:25.368Z,8.25
2022-10-02T14:17:13.804Z,9.00
2022-10-02T14:20:23.086Z,6.50
2022-10-02T14:23:51.661Z,8.25
2022-10-02T14:27:12.538Z,8.25
2022-10-02T14:30:22.958Z,5.75
2022-10-02T14:33:44.113Z,7.00
2022-10-02T14:37:06.584Z,5.00
2022-10-02T14:40:19.540Z,6.00
2022-10-02T14:43:37.114Z,6.00
2022-10-02T14:47:15.332Z,5.75
2022-10-02T14:50:37.018Z,6.50
2022-10-02T14:54:07.361Z,6.00
2022-10-02T14:57:37.091Z,4.75
2022-10-02T15:00:56.122Z,3.25
2022-10-02T15:04:17.597Z,4.50
2022-10-02T15:07:24.648Z,5.00
2022-10-02T15:10:33.135Z,4.00
2022-10-02T15:13:46.538Z,4.00
2022-10-02T15:17:17.458Z,5.00
2022-10-02T15:20:22.710Z,4.50
2022-10-02T15:23:33.526Z,4.00
2022-10-02T15:26:45.039Z,5.00
2022-10-02T15:30:17.405Z,4.50
2022-10-02T15:33:25.520Z,4.00
2022-10-02T15:36:39.367Z,5.00
2022-10-02T15:39:41.509Z,5.75
2022-10-02T15:42:58.721Z,5.00
2022-10-02T15:46:15.050Z,6.00
2022-10-02T15:49:38.611Z,6.25
2022-10-02T15:52:59.169Z,5.00
2022-10-02T15:56:29.429Z,5.00
2022-10-02T15:59:41.417Z,4.00
2022-10-02T16:03:08.296Z,7.75
2022-10-02T16:06:35.664Z,7.25
2022-10-02T16:10:07.135Z,8.00
2022-10-02T16:13:28.357Z,8.50
2022-10-02T16:16:56.721Z,5.25
2022-10-02T16:20:03.872Z,9.00
2022-10-02T16:23:30.941Z,5.50
2022-10-02T16:27:00.104Z,7.25
2022-10-02T16:30:05.492Z,7.00
2022-10-02T16:33:42.355Z,7.50
2022-10-02T16:36:51.372Z,8.25
2022-10-02T16:40:00.850Z,7.50
2022-10-02T16:43:40.414Z,5.50
2022-10-02T16:46:55.960Z,7.50
2022-10-02T16:50:05.695Z,9.00
2022-10-02T16:53:24.321Z,11.25
2022-10-02T16:56:54.531Z,5.00
2022-10-02T17:00:06.641Z,17.50
2022-10-02T17:03:22.029Z,14.00
2022-10-02T17:06:30.338Z,13.00
2022-10-02T17:09:58.949Z,16.50
2022-10-02T17:13:12.182Z,20.75
2022-10-02T17:16:25.498Z,18.75
2022-10-02T17:19:33.152Z,21.75
2022-10-02T17:22:59.022Z,21.00
2022-10-02T17:26:01.626Z,19.75
2022-10-02T17:29:35.594Z,18.00
2022-10-02T17:32:52.767Z,23.00
2022-10-02T17:35:54.849Z,21.25
2022-10-02T17:39:04.349Z,23.50
2022-10-02T17:42:28.583Z,20.75
2022-10-02T17:45:32.424Z,19.75
2022-10-02T17:48:50.915Z,22.00
2022-10-02T17:52:25.462Z,19.25
2022-10-02T17:55:58.457Z,23.25
2022-10-02T17:59:00.793Z,18.25
2022-10-02T18:02:12.579Z,20.75
2022-10-02T18:05:56.736Z,17.25
2022-10-02T18:09:15.369Z,24.75
2022-10-02T18:12:51.422Z,18.50
2022-10-02T18:16:25.086Z,21.00
2022-10-02T18:19:59.421Z,21.00
2022-10-02T18:23:13.812Z,19.25
2022-10-02T18:26:37.799Z,17.50
2022-10-02T18:29:49.053Z,22.25
2022-10-02T18:33:13.828Z,25.25
2022-10-02T18:36:29.887Z,21.50
2022-10-02T18:39:58.832Z,21.00
2022-10-02T18:43:24.449Z,21.75
2022-10-02T18:46:51.974Z,19.00
2022-10-02T18:50:15.921Z,20.75
2022-10-02T18:53:43.104Z,22.50
2022-10-02T18:57:05.414Z,21.75
2022-10-02T19:00:18.751Z,21.50
2022-10-02T19:03:51.095Z,20.25
2022-10-02T19:07:03.190Z,19.25
2022-10-02T19:10:29.748Z,21.75
2022-10-02T19:13:38.764Z,22.00
2022-10-02T19:16:55.897Z,21.75
2022-10-02T19:19:58.749Z,22.50
2022-10-02T19:23:01.508Z,20.25
2022-10-02T19:26:31.763Z,24.00
2022-10-02T19:29:48.739Z,25.00
2022-10-02T19:32:51.558Z,24.50
2022-10-02T19:35:53.792Z,23.00
2022-10-02T19:39:01.385Z,23.50
2022-10-02T19:42:15.784Z,20.00
2022-10-02T19:45:26.917Z,15.50
2022-10-02T19:48:31.282Z,12.25
2022-10-02T19:51:46.867Z,13.00
2022-10-02T19:54:49.010Z,12.25
2022-10-02T19:57:58.465Z,9.75
2022-10-02T20:01:01.376Z,9.25
2022-10-02T20:04:05.414Z,11.50
2022-10-02T20:07:16.622Z,11.00
2022-10-02T20:10:24.856Z,11.25
2022-10-02T20:13:41.627Z,3.75
2022-10-02T20:17:02.627Z,11.50
2022-10-02T20:20:08.194Z,12.00
2022-10-02T20:23:17.048Z,10.00
2022-10-02T20:26:23.452Z,16.00
2022-10-02T20:29:31.255Z,15.00
2022-10-02T20:32:39.660Z,12.50
2022-10-02T20:36:26.148Z,11.50
2022-10-02T20:39:35.796Z,12.50
2022-10-02T20:43:15.468Z,11.25
2022-10-02T20:46:23.210Z,11.00
2022-10-02T20:49:35.799Z,8.00
2022-10-02T20:52:49.932Z,9.50
2022-10-02T20:56:07.171Z,10.75
2022-10-02T20:59:34.103Z,12.00
2022-10-02T21:03:15.062Z,11.00
2022-10-02T21:06:41.576Z,12.25
2022-10-02T21:09:46.699Z,20.00
2022-10-02T21:13:07.296Z,13.00
2022-10-02T21:16:11.054Z,13.00
2022-10-02T21:19:37.133Z,12.50
2022-10-02T21:23:16.771Z,12.25
2022-10-02T21:26:26.872Z,16.25
2022-10-02T21:29:53.990Z,15.50
2022-10-02T21:33:15.484Z,19.25
2022-10-02T21:36:24.273Z,20.25
2022-10-02T21:40:06.796Z,14.50
2022-10-02T21:43:37.587Z,15.50
2022-10-02T21:47:01.178Z,19.50
2022-10-02T21:50:42.101Z,20.75
2022-10-02T21:53:57.740Z,19.50
2022-10-02T21:57:31.004Z,20.00
2022-10-02T22:00:59.467Z,17.25
2022-10-02T22:04:26.882Z,20.00
2022-10-02T22:07:36.789Z,16.25
2022-10-02T22:10:55.491Z,18.25
2022-10-02T22:14:06.522Z,17.50
2022-10-02T22:17:19.550Z,15.25
2022-10-02T22:20:47.283Z,19.50
2022-10-02T22:24:32.877Z,17.00
2022-10-02T22:27:38.471Z,18.00
2022-10-02T22:31:19.662Z,15.75
2022-10-02T22:34:43.264Z,16.50
2022-10-02T22:37:51.346Z,16.50
2022-10-02T22:40:57.998Z,16.50
2022-10-02T22:44:20.475Z,15.25
2022-10-02T22:47:28.565Z,16.50
2022-10-02T22:50:38.464Z,16.00
2022-10-02T22:53:56.978Z,22.00
2022-10-02T22:57:02.345Z,10.50
2022-10-02T23:00:18.171Z,15.00
2022-10-02T23:03:31.387Z,15.50
2022-10-02T23:06:41.670Z,12.75
2022-10-02T23:09:57.798Z,15.50
2022-10-02T23:13:21.169Z,14.75
2022-10-02T23:16:42.760Z,15.00
2022-10-02T23:19:54.634Z,18.25
2022-10-02T23:23:14.924Z,18.00
2022-10-02T23:26:30.645Z,19.50
2022-10-02T23:30:00.432Z,18.50
2022-10-02T23:33:19.084Z,21.75
2022-10-02T23:36:32.128Z,21.25
2022-10-02T23:39:43.834Z,23.50
2022-10-02T23:42:59.157Z,23.50
2022-10-02T23:46:06.149Z,23.50
2022-10-02T23:49:10.987Z,21.75
2022-10-02T23:52:18.887Z,21.25
2022-10-02T23:55:59.016Z,21.75
2022-10-02T23:59:03.681Z,28.00
